Stella Polaris — PEBD — position and weather

sailwx.info

Track history (hours):
 
Tides and Currents Weather Stations Pressure Air Temp Water Temp Dewpoint Dewpoint Depression Visibility Wind Speed Wind Dir Waves Ship Positions

Stella Polaris

Last reported at 2014-Nov-28 09:19 UTC. Time now 2014-Nov-28 09:42 UTC.
Position N 51°12' E 003°48'.

Length 117 m; draft 7.7 m.

Type: Ship (hazmat cat A). MMSI: 245911000.

Date/timePositionNaut miles runAvg speedWind from/ knotsBaromVisibWave heightAir tempDewpointWater temp
2014-Nov-28 09:19N 51°12' E 003°48'0 0.0
2014-Nov-28 03:11N 51°12' E 003°48'0 0.0
2014-Nov-28 02:23N 51°12' E 003°48'0 0.0
2014-Nov-27 23:23N 51°12' E 003°48'0 0.0
2014-Nov-27 22:17N 51°12' E 003°48'0 0.0
2014-Nov-27 18:33N 51°12' E 003°48'0 0.0
2014-Nov-26 15:30N 51°12' E 003°48'1 0.8
2014-Nov-26 14:33N 51°13' E 003°48'6 5.8
2014-Nov-26 13:34N 51°19' E 003°50'1 1.3
2014-Nov-26 12:33N 51°20' E 003°49'1 1.1
2014-Nov-26 11:33N 51°21' E 003°48'7 7.0
2014-Nov-26 10:33N 51°26' E 003°41'8 8.1
2014-Nov-26 09:34N 51°30' E 003°29'9 9.1
2014-Nov-26 08:32N 51°38' E 003°21'45111.3
2014-Nov-24 16:33N 57°49' E 010°44'2612.8
2014-Nov-24 14:33N 57°32' E 011°19'18211.4
2014-Nov-23 22:34N 54°30' E 011°34'1313.0
2014-Nov-23 21:34N 54°26' E 011°55'1111.3
2014-Nov-23 20:33N 54°32' E 012°12'8512.2
2014-Nov-23 13:34N 55°15' E 014°20'1312.9
2014-Nov-23 12:33N 55°25' E 014°35'1312.9
2014-Nov-23 11:32N 55°32' E 014°55'5213.2
2014-Nov-23 07:33N 55°58' E 016°15'32312.9
2014-Nov-22 06:33N 59°40' E 023°36'8912.7
2014-Nov-21 23:33N 60°11' E 026°22'1212.2
2014-Nov-21 22:33N 60°20' E 026°38'10 9.9
2014-Nov-21 21:33N 60°26' E 026°55'0 0.0
2014-Nov-21 20:23N 60°26' E 026°55'0 0.0
2014-Nov-21 19:29N 60°26' E 026°55'0 0.0
2014-Nov-21 18:29N 60°26' E 026°55'0 0.0
2014-Nov-21 17:29N 60°26' E 026°55'0 0.0
2014-Nov-21 16:32N 60°26' E 026°55'0 0.0
2014-Nov-21 15:29N 60°26' E 026°55'0 0.0
2014-Nov-21 14:29N 60°26' E 026°55'0 0.0
2014-Nov-21 13:29N 60°26' E 026°55'0 0.0
2014-Nov-21 12:29N 60°26' E 026°55'0 0.0
2014-Nov-21 11:23N 60°26' E 026°55'0 0.0
2014-Nov-21 10:29N 60°26' E 026°55'0 0.0
2014-Nov-21 09:27N 60°26' E 026°55'0 0.0
2014-Nov-21 08:33N 60°26' E 026°55'0 0.0
2014-Nov-21 07:33N 60°26' E 026°55'0 0.0
2014-Nov-21 06:33N 60°26' E 026°55'0 0.0
2014-Nov-21 05:15N 60°26' E 026°55'0 0.0
2014-Nov-21 04:21N 60°26' E 026°55'0 0.0
2014-Nov-21 03:27N 60°26' E 026°55'0 0.0
2014-Nov-21 02:33N 60°26' E 026°55'0 0.0
2014-Nov-21 01:33N 60°26' E 026°55'0 0.0
2014-Nov-21 00:30N 60°26' E 026°55'0 0.0
2014-Nov-20 23:30N 60°26' E 026°55'0 0.0
2014-Nov-20 22:30N 60°26' E 026°55'0 0.0
2014-Nov-20 21:33N 60°26' E 026°55'0 0.0
2014-Nov-20 20:31N 60°26' E 026°55'0 0.0
2014-Nov-20 19:31N 60°26' E 026°55'0 0.0
2014-Nov-20 18:28N 60°26' E 026°55'0 0.0
2014-Nov-20 17:31N 60°26' E 026°55'0 0.0
2014-Nov-20 16:31N 60°26' E 026°55'0 0.0
2014-Nov-20 15:31N 60°26' E 026°55'0 0.0
2014-Nov-20 14:31N 60°26' E 026°55'0 0.0
2014-Nov-20 13:31N 60°26' E 026°55'0 0.0
2014-Nov-20 12:31N 60°26' E 026°55'0 0.0
2014-Nov-20 11:31N 60°26' E 026°55'0 0.0
2014-Nov-20 10:31N 60°26' E 026°55'0 0.0
2014-Nov-20 09:31N 60°26' E 026°55'0 0.0
2014-Nov-20 08:31N 60°26' E 026°55'0 0.0
2014-Nov-20 07:32N 60°26' E 026°55'0 0.0
2014-Nov-20 06:32N 60°26' E 026°55'0 0.0
2014-Nov-20 05:32N 60°26' E 026°55'0 0.0
2014-Nov-20 04:32N 60°26' E 026°55'0 0.0
2014-Nov-20 03:32N 60°26' E 026°55'0 0.0
2014-Nov-20 02:32N 60°26' E 026°55'0 0.0
2014-Nov-20 01:31N 60°26' E 026°55'0 0.0
2014-Nov-20 00:31N 60°26' E 026°55'0 0.0
2014-Nov-19 23:31N 60°26' E 026°55'0 0.0
2014-Nov-19 22:31N 60°26' E 026°55'0 0.0
2014-Nov-19 21:31N 60°26' E 026°55'0 0.0
2014-Nov-19 20:31N 60°26' E 026°55'0 0.0
2014-Nov-19 19:31N 60°26' E 026°55'0 0.0
2014-Nov-19 18:33N 60°26' E 026°55'4 4.2
2014-Nov-19 17:34N 60°23' E 026°49'1313.4
2014-Nov-19 16:34N 60°15' E 026°27'1211.6
2014-Nov-19 15:33N 60°05' E 026°17'1312.6
2014-Nov-19 14:33N 59°54' E 026°03'1614.0
2014-Nov-19 13:27N 59°51' E 025°33'2614.0
2014-Nov-19 11:33N 59°45' E 024°41'  
Track history (hours):
 
Tides and Currents Weather Stations Pressure Air Temp Water Temp Dewpoint Dewpoint Depression Visibility Wind Speed Wind Dir Waves Ship Positions

Stella Polaris

Last reported at 2014-Nov-28 09:19 UTC. Time now 2014-Nov-28 09:42 UTC.
Position N 51°12' E 003°48'.

Length 117 m; draft 7.7 m.

Type: Ship (hazmat cat A). MMSI: 245911000.

Date/timePositionNaut miles runAvg speedWind from/ knotsBaromVisibWave heightAir tempDewpointWater temp
2014-Nov-28 09:19N 51°12' E 003°48'0 0.0
2014-Nov-28 03:11N 51°12' E 003°48'0 0.0
2014-Nov-28 02:23N 51°12' E 003°48'0 0.0
2014-Nov-27 23:23N 51°12' E 003°48'0 0.0
2014-Nov-27 22:17N 51°12' E 003°48'0 0.0
2014-Nov-27 18:33N 51°12' E 003°48'0 0.0
2014-Nov-26 15:30N 51°12' E 003°48'1 0.8
2014-Nov-26 14:33N 51°13' E 003°48'6 5.8
2014-Nov-26 13:34N 51°19' E 003°50'1 1.3
2014-Nov-26 12:33N 51°20' E 003°49'1 1.1
2014-Nov-26 11:33N 51°21' E 003°48'7 7.0
2014-Nov-26 10:33N 51°26' E 003°41'8 8.1
2014-Nov-26 09:34N 51°30' E 003°29'9 9.1
2014-Nov-26 08:32N 51°38' E 003°21'45111.3
2014-Nov-24 16:33N 57°49' E 010°44'2612.8
2014-Nov-24 14:33N 57°32' E 011°19'18211.4
2014-Nov-23 22:34N 54°30' E 011°34'1313.0
2014-Nov-23 21:34N 54°26' E 011°55'1111.3
2014-Nov-23 20:33N 54°32' E 012°12'8512.2
2014-Nov-23 13:34N 55°15' E 014°20'1312.9
2014-Nov-23 12:33N 55°25' E 014°35'1312.9
2014-Nov-23 11:32N 55°32' E 014°55'5213.2
2014-Nov-23 07:33N 55°58' E 016°15'32312.9
2014-Nov-22 06:33N 59°40' E 023°36'8912.7
2014-Nov-21 23:33N 60°11' E 026°22'1212.2
2014-Nov-21 22:33N 60°20' E 026°38'10 9.9
2014-Nov-21 21:33N 60°26' E 026°55'0 0.0
2014-Nov-21 20:23N 60°26' E 026°55'0 0.0
2014-Nov-21 19:29N 60°26' E 026°55'0 0.0
2014-Nov-21 18:29N 60°26' E 026°55'0 0.0
2014-Nov-21 17:29N 60°26' E 026°55'0 0.0
2014-Nov-21 16:32N 60°26' E 026°55'0 0.0
2014-Nov-21 15:29N 60°26' E 026°55'0 0.0
2014-Nov-21 14:29N 60°26' E 026°55'0 0.0
2014-Nov-21 13:29N 60°26' E 026°55'0 0.0
2014-Nov-21 12:29N 60°26' E 026°55'0 0.0
2014-Nov-21 11:23N 60°26' E 026°55'0 0.0
2014-Nov-21 10:29N 60°26' E 026°55'0 0.0
2014-Nov-21 09:27N 60°26' E 026°55'0 0.0
2014-Nov-21 08:33N 60°26' E 026°55'0 0.0
2014-Nov-21 07:33N 60°26' E 026°55'0 0.0
2014-Nov-21 06:33N 60°26' E 026°55'0 0.0
2014-Nov-21 05:15N 60°26' E 026°55'0 0.0
2014-Nov-21 04:21N 60°26' E 026°55'0 0.0
2014-Nov-21 03:27N 60°26' E 026°55'0 0.0
2014-Nov-21 02:33N 60°26' E 026°55'0 0.0
2014-Nov-21 01:33N 60°26' E 026°55'0 0.0
2014-Nov-21 00:30N 60°26' E 026°55'0 0.0
2014-Nov-20 23:30N 60°26' E 026°55'0 0.0
2014-Nov-20 22:30N 60°26' E 026°55'0 0.0
2014-Nov-20 21:33N 60°26' E 026°55'0 0.0
2014-Nov-20 20:31N 60°26' E 026°55'0 0.0
2014-Nov-20 19:31N 60°26' E 026°55'0 0.0
2014-Nov-20 18:28N 60°26' E 026°55'0 0.0
2014-Nov-20 17:31N 60°26' E 026°55'0 0.0
2014-Nov-20 16:31N 60°26' E 026°55'0 0.0
2014-Nov-20 15:31N 60°26' E 026°55'0 0.0
2014-Nov-20 14:31N 60°26' E 026°55'0 0.0
2014-Nov-20 13:31N 60°26' E 026°55'0 0.0
2014-Nov-20 12:31N 60°26' E 026°55'0 0.0
2014-Nov-20 11:31N 60°26' E 026°55'0 0.0
2014-Nov-20 10:31N 60°26' E 026°55'0 0.0
2014-Nov-20 09:31N 60°26' E 026°55'0 0.0
2014-Nov-20 08:31N 60°26' E 026°55'0 0.0
2014-Nov-20 07:32N 60°26' E 026°55'0 0.0
2014-Nov-20 06:32N 60°26' E 026°55'0 0.0
2014-Nov-20 05:32N 60°26' E 026°55'0 0.0
2014-Nov-20 04:32N 60°26' E 026°55'0 0.0
2014-Nov-20 03:32N 60°26' E 026°55'0 0.0
2014-Nov-20 02:32N 60°26' E 026°55'0 0.0
2014-Nov-20 01:31N 60°26' E 026°55'0 0.0
2014-Nov-20 00:31N 60°26' E 026°55'0 0.0
2014-Nov-19 23:31N 60°26' E 026°55'0 0.0
2014-Nov-19 22:31N 60°26' E 026°55'0 0.0
2014-Nov-19 21:31N 60°26' E 026°55'0 0.0
2014-Nov-19 20:31N 60°26' E 026°55'0 0.0
2014-Nov-19 19:31N 60°26' E 026°55'0 0.0
2014-Nov-19 18:33N 60°26' E 026°55'4 4.2
2014-Nov-19 17:34N 60°23' E 026°49'1313.4
2014-Nov-19 16:34N 60°15' E 026°27'1211.6
2014-Nov-19 15:33N 60°05' E 026°17'1312.6
2014-Nov-19 14:33N 59°54' E 026°03'1614.0
2014-Nov-19 13:27N 59°51' E 025°33'2614.0
2014-Nov-19 11:33N 59°45' E 024°41'  

Dump ship's entire track history